sensor_id;sensor_type;location;lat;lon;timestamp;P1;durP1;ratioP1;P2;durP2;ratioP2
15661;SDS011;7931;52.274;10.470;2022-08-06T00:00:29;1.98;;;0.50;;
15661;SDS011;7931;52.274;10.470;2022-08-06T00:02:55;3.53;;;0.50;;
15661;SDS011;7931;52.274;10.470;2022-08-06T00:05:20;1.63;;;0.50;;
15661;SDS011;7931;52.274;10.470;2022-08-06T00:07:46;2.10;;;0.57;;
15661;SDS011;7931;52.274;10.470;2022-08-06T00:10:11;0.60;;;0.40;;
15661;SDS011;7931;52.274;10.470;2022-08-06T00:12:37;1.35;;;0.38;;
15661;SDS011;7931;52.274;10.470;2022-08-06T00:15:03;0.77;;;0.53;;
15661;SDS011;7931;52.274;10.470;2022-08-06T00:17:30;1.37;;;0.57;;
15661;SDS011;7931;52.274;10.470;2022-08-06T00:19:56;1.53;;;1.07;;
15661;SDS011;7931;52.274;10.470;2022-08-06T00:22:21;2.53;;;0.83;;
15661;SDS011;7931;52.274;10.470;2022-08-06T00:24:46;0.77;;;0.50;;
15661;SDS011;7931;52.274;10.470;2022-08-06T00:27:12;1.17;;;0.40;;
15661;SDS011;7931;52.274;10.470;2022-08-06T00:29:37;0.70;;;0.50;;
15661;SDS011;7931;52.274;10.470;2022-08-06T00:32:02;0.63;;;0.60;;
15661;SDS011;7931;52.274;10.470;2022-08-06T00:34:28;0.50;;;0.50;;
15661;SDS011;7931;52.274;10.470;2022-08-06T00:36:53;2.27;;;1.13;;
15661;SDS011;7931;52.274;10.470;2022-08-06T00:39:19;0.60;;;0.57;;
15661;SDS011;7931;52.274;10.470;2022-08-06T00:41:44;3.63;;;0.90;;
15661;SDS011;7931;52.274;10.470;2022-08-06T00:44:09;3.13;;;0.90;;
15661;SDS011;7931;52.274;10.470;2022-08-06T00:46:35;0.50;;;0.50;;
15661;SDS011;7931;52.274;10.470;2022-08-06T00:49:00;1.40;;;0.70;;
15661;SDS011;7931;52.274;10.470;2022-08-06T00:51:26;0.50;;;0.50;;
15661;SDS011;7931;52.274;10.470;2022-08-06T00:53:52;3.13;;;0.57;;
15661;SDS011;7931;52.274;10.470;2022-08-06T00:56:18;1.17;;;0.50;;
15661;SDS011;7931;52.274;10.470;2022-08-06T00:58:44;2.50;;;0.87;;
15661;SDS011;7931;52.274;10.470;2022-08-06T01:01:09;3.63;;;0.67;;
15661;SDS011;7931;52.274;10.470;2022-08-06T01:03:36;1.47;;;0.70;;
15661;SDS011;7931;52.274;10.470;2022-08-06T01:06:01;0.70;;;0.70;;
15661;SDS011;7931;52.274;10.470;2022-08-06T01:08:27;1.80;;;0.60;;
15661;SDS011;7931;52.274;10.470;2022-08-06T01:10:53;1.80;;;0.80;;
15661;SDS011;7931;52.274;10.470;2022-08-06T01:13:18;1.57;;;0.63;;
15661;SDS011;7931;52.274;10.470;2022-08-06T01:15:45;4.37;;;1.00;;
15661;SDS011;7931;52.274;10.470;2022-08-06T01:18:22;1.90;;;0.70;;
15661;SDS011;7931;52.274;10.470;2022-08-06T01:23:45;0.80;;;0.60;;
15661;SDS011;7931;52.274;10.470;2022-08-06T01:31:45;0.70;;;0.70;;
15661;SDS011;7931;52.274;10.470;2022-08-06T01:34:20;2.57;;;0.87;;
15661;SDS011;7931;52.274;10.470;2022-08-06T01:36:51;0.80;;;0.70;;
15661;SDS011;7931;52.274;10.470;2022-08-06T01:39:24;1.00;;;0.80;;
15661;SDS011;7931;52.274;10.470;2022-08-06T01:41:52;1.07;;;0.70;;
15661;SDS011;7931;52.274;10.470;2022-08-06T01:44:20;0.93;;;0.80;;
15661;SDS011;7931;52.274;10.470;2022-08-06T01:46:51;0.97;;;0.70;;
15661;SDS011;7931;52.274;10.470;2022-08-06T01:49:24;1.03;;;0.70;;
15661;SDS011;7931;52.274;10.470;2022-08-06T01:51:52;1.03;;;0.87;;
15661;SDS011;7931;52.274;10.470;2022-08-06T01:54:22;1.77;;;0.90;;
15661;SDS011;7931;52.274;10.470;2022-08-06T01:56:50;1.90;;;0.90;;
15661;SDS011;7931;52.274;10.470;2022-08-06T01:59:18;3.77;;;1.10;;
15661;SDS011;7931;52.274;10.470;2022-08-06T02:01:47;2.00;;;0.80;;
15661;SDS011;7931;52.274;10.470;2022-08-06T02:04:16;1.83;;;0.87;;
15661;SDS011;7931;52.274;10.470;2022-08-06T02:06:44;1.97;;;0.63;;
15661;SDS011;7931;52.274;10.470;2022-08-06T02:09:15;1.23;;;0.60;;
15661;SDS011;7931;52.274;10.470;2022-08-06T02:11:43;0.60;;;0.60;;
15661;SDS011;7931;52.274;10.470;2022-08-06T02:14:13;2.60;;;0.70;;
15661;SDS011;7931;52.274;10.470;2022-08-06T02:16:41;1.43;;;0.70;;
15661;SDS011;7931;52.274;10.470;2022-08-06T02:19:08;0.70;;;0.70;;
15661;SDS011;7931;52.274;10.470;2022-08-06T02:21:36;1.67;;;0.60;;
15661;SDS011;7931;52.274;10.470;2022-08-06T02:24:06;2.00;;;0.90;;
15661;SDS011;7931;52.274;10.470;2022-08-06T02:26:34;0.90;;;0.73;;
15661;SDS011;7931;52.274;10.470;2022-08-06T02:29:03;1.97;;;0.60;;
15661;SDS011;7931;52.274;10.470;2022-08-06T02:31:31;1.63;;;0.60;;
15661;SDS011;7931;52.274;10.470;2022-08-06T02:33:57;0.57;;;0.57;;
15661;SDS011;7931;52.274;10.470;2022-08-06T02:41:32;2.07;;;0.80;;
15661;SDS011;7931;52.274;10.470;2022-08-06T02:44:12;2.73;;;0.90;;
15661;SDS011;7931;52.274;10.470;2022-08-06T02:46:46;2.07;;;0.80;;
15661;SDS011;7931;52.274;10.470;2022-08-06T02:49:25;1.77;;;0.70;;
15661;SDS011;7931;52.274;10.470;2022-08-06T02:52:14;1.50;;;0.87;;
15661;SDS011;7931;52.274;10.470;2022-08-06T02:54:48;2.83;;;1.03;;
15661;SDS011;7931;52.274;10.470;2022-08-06T02:57:21;0.80;;;0.70;;
15661;SDS011;7931;52.274;10.470;2022-08-06T02:59:52;1.47;;;1.33;;
15661;SDS011;7931;52.274;10.470;2022-08-06T03:02:20;2.20;;;0.93;;
15661;SDS011;7931;52.274;10.470;2022-08-06T03:04:48;1.20;;;0.77;;
15661;SDS011;7931;52.274;10.470;2022-08-06T03:07:15;1.47;;;0.90;;
15661;SDS011;7931;52.274;10.470;2022-08-06T03:09:45;1.80;;;0.77;;
15661;SDS011;7931;52.274;10.470;2022-08-06T03:12:13;1.20;;;1.00;;
15661;SDS011;7931;52.274;10.470;2022-08-06T03:14:40;1.57;;;1.07;;
15661;SDS011;7931;52.274;10.470;2022-08-06T03:17:07;1.73;;;1.13;;
15661;SDS011;7931;52.274;10.470;2022-08-06T03:19:37;4.00;;;0.90;;
15661;SDS011;7931;52.274;10.470;2022-08-06T03:22:04;1.53;;;1.03;;
15661;SDS011;7931;52.274;10.470;2022-08-06T03:24:30;1.10;;;1.00;;
15661;SDS011;7931;52.274;10.470;2022-08-06T03:27:00;2.07;;;1.17;;
15661;SDS011;7931;52.274;10.470;2022-08-06T03:29:26;5.73;;;1.43;;
15661;SDS011;7931;52.274;10.470;2022-08-06T03:31:53;1.60;;;1.17;;
15661;SDS011;7931;52.274;10.470;2022-08-06T03:34:19;1.90;;;0.97;;
15661;SDS011;7931;52.274;10.470;2022-08-06T03:36:45;2.27;;;1.23;;
15661;SDS011;7931;52.274;10.470;2022-08-06T03:39:11;1.87;;;1.00;;
15661;SDS011;7931;52.274;10.470;2022-08-06T03:41:39;1.80;;;1.00;;
15661;SDS011;7931;52.274;10.470;2022-08-06T03:44:06;2.23;;;1.23;;
15661;SDS011;7931;52.274;10.470;2022-08-06T03:46:40;1.40;;;1.30;;
15661;SDS011;7931;52.274;10.470;2022-08-06T03:49:12;2.30;;;1.10;;
15661;SDS011;7931;52.274;10.470;2022-08-06T03:51:43;1.70;;;0.87;;
15661;SDS011;7931;52.274;10.470;2022-08-06T03:54:10;1.70;;;1.30;;
15661;SDS011;7931;52.274;10.470;2022-08-06T03:56:38;1.60;;;1.13;;
15661;SDS011;7931;52.274;10.470;2022-08-06T03:59:06;1.17;;;1.07;;
15661;SDS011;7931;52.274;10.470;2022-08-06T04:01:36;1.13;;;1.03;;
15661;SDS011;7931;52.274;10.470;2022-08-06T04:04:05;1.40;;;1.20;;
15661;SDS011;7931;52.274;10.470;2022-08-06T04:06:31;1.70;;;1.10;;
15661;SDS011;7931;52.274;10.470;2022-08-06T04:08:57;3.33;;;1.20;;
15661;SDS011;7931;52.274;10.470;2022-08-06T04:11:25;1.47;;;1.07;;
15661;SDS011;7931;52.274;10.470;2022-08-06T04:13:51;1.43;;;1.10;;
15661;SDS011;7931;52.274;10.470;2022-08-06T04:16:18;2.03;;;1.37;;
15661;SDS011;7931;52.274;10.470;2022-08-06T04:18:44;1.30;;;1.20;;
15661;SDS011;7931;52.274;10.470;2022-08-06T04:21:12;2.50;;;1.60;;
15661;SDS011;7931;52.274;10.470;2022-08-06T04:23:42;2.80;;;1.67;;
15661;SDS011;7931;52.274;10.470;2022-08-06T04:26:08;3.73;;;1.60;;
15661;SDS011;7931;52.274;10.470;2022-08-06T04:28:37;1.77;;;1.40;;
15661;SDS011;7931;52.274;10.470;2022-08-06T04:31:06;1.47;;;1.30;;
15661;SDS011;7931;52.274;10.470;2022-08-06T04:33:33;3.60;;;1.40;;
15661;SDS011;7931;52.274;10.470;2022-08-06T04:36:01;4.03;;;1.90;;
15661;SDS011;7931;52.274;10.470;2022-08-06T04:38:30;4.33;;;1.30;;
15661;SDS011;7931;52.274;10.470;2022-08-06T04:40:57;2.30;;;1.80;;
15661;SDS011;7931;52.274;10.470;2022-08-06T04:43:23;1.40;;;1.30;;
15661;SDS011;7931;52.274;10.470;2022-08-06T04:45:49;5.03;;;1.37;;
15661;SDS011;7931;52.274;10.470;2022-08-06T04:48:15;1.90;;;1.43;;
15661;SDS011;7931;52.274;10.470;2022-08-06T04:50:41;1.60;;;1.50;;
15661;SDS011;7931;52.274;10.470;2022-08-06T04:53:07;4.10;;;1.57;;
15661;SDS011;7931;52.274;10.470;2022-08-06T04:55:41;1.43;;;1.17;;
15661;SDS011;7931;52.274;10.470;2022-08-06T04:58:08;1.30;;;1.20;;
15661;SDS011;7931;52.274;10.470;2022-08-06T05:00:36;2.17;;;1.10;;
15661;SDS011;7931;52.274;10.470;2022-08-06T05:03:03;2.07;;;1.20;;
15661;SDS011;7931;52.274;10.470;2022-08-06T05:05:39;2.03;;;1.13;;
15661;SDS011;7931;52.274;10.470;2022-08-06T05:08:08;1.30;;;1.20;;
15661;SDS011;7931;52.274;10.470;2022-08-06T05:10:38;2.63;;;1.50;;
15661;SDS011;7931;52.274;10.470;2022-08-06T05:13:10;1.47;;;1.33;;
15661;SDS011;7931;52.274;10.470;2022-08-06T05:15:39;1.40;;;1.10;;
15661;SDS011;7931;52.274;10.470;2022-08-06T05:20:47;2.17;;;1.60;;
15661;SDS011;7931;52.274;10.470;2022-08-06T05:23:16;2.80;;;1.40;;
15661;SDS011;7931;52.274;10.470;2022-08-06T05:25:43;1.37;;;1.20;;
15661;SDS011;7931;52.274;10.470;2022-08-06T05:28:09;1.50;;;1.20;;
15661;SDS011;7931;52.274;10.470;2022-08-06T05:30:45;3.10;;;1.33;;
15661;SDS011;7931;52.274;10.470;2022-08-06T05:33:12;1.40;;;1.30;;
15661;SDS011;7931;52.274;10.470;2022-08-06T05:35:59;1.47;;;1.30;;
15661;SDS011;7931;52.274;10.470;2022-08-06T05:38:26;2.37;;;1.47;;
15661;SDS011;7931;52.274;10.470;2022-08-06T05:40:55;2.90;;;1.60;;
15661;SDS011;7931;52.274;10.470;2022-08-06T05:43:21;3.63;;;1.40;;
15661;SDS011;7931;52.274;10.470;2022-08-06T05:45:47;1.97;;;1.30;;
15661;SDS011;7931;52.274;10.470;2022-08-06T05:48:16;1.87;;;1.37;;
15661;SDS011;7931;52.274;10.470;2022-08-06T05:50:45;1.47;;;1.37;;
15661;SDS011;7931;52.274;10.470;2022-08-06T05:53:57;2.17;;;1.67;;
15661;SDS011;7931;52.274;10.470;2022-08-06T05:56:10;1.60;;;1.50;;
15661;SDS011;7931;52.274;10.470;2022-08-06T05:58:41;2.07;;;1.60;;
15661;SDS011;7931;52.274;10.470;2022-08-06T06:01:12;2.10;;;1.53;;
15661;SDS011;7931;52.274;10.470;2022-08-06T06:03:39;4.63;;;1.63;;
15661;SDS011;7931;52.274;10.470;2022-08-06T06:06:06;1.50;;;1.27;;
15661;SDS011;7931;52.274;10.470;2022-08-06T06:08:34;4.73;;;1.60;;
15661;SDS011;7931;52.274;10.470;2022-08-06T06:11:02;1.87;;;1.50;;
15661;SDS011;7931;52.274;10.470;2022-08-06T06:13:28;2.97;;;1.30;;
15661;SDS011;7931;52.274;10.470;2022-08-06T06:16:02;4.07;;;1.73;;
15661;SDS011;7931;52.274;10.470;2022-08-06T06:24:31;2.23;;;1.10;;
15661;SDS011;7931;52.274;10.470;2022-08-06T06:27:11;3.73;;;1.20;;
15661;SDS011;7931;52.274;10.470;2022-08-06T06:29:59;3.60;;;1.20;;
15661;SDS011;7931;52.274;10.470;2022-08-06T06:32:37;1.00;;;1.00;;
15661;SDS011;7931;52.274;10.470;2022-08-06T06:35:32;1.50;;;1.07;;
15661;SDS011;7931;52.274;10.470;2022-08-06T06:40:56;1.60;;;0.80;;
15661;SDS011;7931;52.274;10.470;2022-08-06T06:43:33;2.65;;;1.17;;
15661;SDS011;7931;52.274;10.470;2022-08-06T06:46:10;2.40;;;0.70;;
15661;SDS011;7931;52.274;10.470;2022-08-06T06:48:49;1.88;;;0.73;;
15661;SDS011;7931;52.274;10.470;2022-08-06T06:51:19;1.43;;;0.90;;
15661;SDS011;7931;52.274;10.470;2022-08-06T06:53:51;1.80;;;0.82;;
15661;SDS011;7931;52.274;10.470;2022-08-06T06:56:19;5.40;;;1.23;;
15661;SDS011;7931;52.274;10.470;2022-08-06T06:58:55;1.87;;;0.90;;
15661;SDS011;7931;52.274;10.470;2022-08-06T07:01:25;3.80;;;0.80;;
15661;SDS011;7931;52.274;10.470;2022-08-06T07:03:52;3.00;;;0.93;;
15661;SDS011;7931;52.274;10.470;2022-08-06T07:06:19;1.67;;;0.85;;
15661;SDS011;7931;52.274;10.470;2022-08-06T07:08:46;2.50;;;0.60;;
15661;SDS011;7931;52.274;10.470;2022-08-06T07:11:14;1.70;;;0.90;;
15661;SDS011;7931;52.274;10.470;2022-08-06T07:13:44;3.03;;;1.05;;
15661;SDS011;7931;52.274;10.470;2022-08-06T07:16:11;0.80;;;0.63;;
15661;SDS011;7931;52.274;10.470;2022-08-06T07:18:41;1.58;;;0.60;;
15661;SDS011;7931;52.274;10.470;2022-08-06T07:21:08;5.32;;;0.93;;
15661;SDS011;7931;52.274;10.470;2022-08-06T07:23:37;1.70;;;0.70;;
15661;SDS011;7931;52.274;10.470;2022-08-06T07:26:03;2.15;;;0.60;;
15661;SDS011;7931;52.274;10.470;2022-08-06T07:28:30;0.90;;;0.60;;
15661;SDS011;7931;52.274;10.470;2022-08-06T07:30:58;3.30;;;0.70;;
15661;SDS011;7931;52.274;10.470;2022-08-06T07:33:24;2.00;;;0.70;;
15661;SDS011;7931;52.274;10.470;2022-08-06T07:35:50;1.92;;;0.70;;
15661;SDS011;7931;52.274;10.470;2022-08-06T07:38:18;0.98;;;0.80;;
15661;SDS011;7931;52.274;10.470;2022-08-06T07:40:48;3.42;;;0.60;;
15661;SDS011;7931;52.274;10.470;2022-08-06T07:43:19;1.95;;;0.63;;
15661;SDS011;7931;52.274;10.470;2022-08-06T07:45:48;1.60;;;0.77;;
15661;SDS011;7931;52.274;10.470;2022-08-06T07:48:16;4.25;;;0.60;;
15661;SDS011;7931;52.274;10.470;2022-08-06T07:50:47;1.20;;;0.55;;
15661;SDS011;7931;52.274;10.470;2022-08-06T07:53:16;1.50;;;0.50;;
15661;SDS011;7931;52.274;10.470;2022-08-06T07:55:43;1.83;;;0.50;;
15661;SDS011;7931;52.274;10.470;2022-08-06T07:58:08;2.95;;;0.60;;
15661;SDS011;7931;52.274;10.470;2022-08-06T08:00:36;1.77;;;0.50;;
15661;SDS011;7931;52.274;10.470;2022-08-06T08:03:02;1.40;;;0.40;;
15661;SDS011;7931;52.274;10.470;2022-08-06T08:05:48;2.22;;;0.40;;
15661;SDS011;7931;52.274;10.470;2022-08-06T08:08:33;2.42;;;0.50;;
15661;SDS011;7931;52.274;10.470;2022-08-06T08:10:59;0.80;;;0.60;;
15661;SDS011;7931;52.274;10.470;2022-08-06T08:13:25;3.88;;;0.57;;
15661;SDS011;7931;52.274;10.470;2022-08-06T08:15:51;2.15;;;0.55;;
15661;SDS011;7931;52.274;10.470;2022-08-06T08:18:19;1.08;;;0.50;;
15661;SDS011;7931;52.274;10.470;2022-08-06T08:20:44;2.05;;;0.50;;
15661;SDS011;7931;52.274;10.470;2022-08-06T08:23:12;2.30;;;0.88;;
15661;SDS011;7931;52.274;10.470;2022-08-06T08:25:39;3.63;;;0.50;;
15661;SDS011;7931;52.274;10.470;2022-08-06T08:28:05;2.13;;;0.50;;
15661;SDS011;7931;52.274;10.470;2022-08-06T08:30:31;1.10;;;0.35;;
15661;SDS011;7931;52.274;10.470;2022-08-06T08:32:56;3.90;;;0.40;;
15661;SDS011;7931;52.274;10.470;2022-08-06T08:35:22;0.80;;;0.40;;
15661;SDS011;7931;52.274;10.470;2022-08-06T08:37:47;1.20;;;0.50;;
15661;SDS011;7931;52.274;10.470;2022-08-06T08:40:13;0.82;;;0.60;;
15661;SDS011;7931;52.274;10.470;2022-08-06T08:42:40;1.58;;;0.50;;
15661;SDS011;7931;52.274;10.470;2022-08-06T08:45:08;1.50;;;0.30;;
15661;SDS011;7931;52.274;10.470;2022-08-06T08:47:35;0.63;;;0.50;;
15661;SDS011;7931;52.274;10.470;2022-08-06T08:50:03;3.00;;;0.63;;
15661;SDS011;7931;52.274;10.470;2022-08-06T08:52:33;1.67;;;0.30;;
15661;SDS011;7931;52.274;10.470;2022-08-06T08:55:03;0.60;;;0.30;;
15661;SDS011;7931;52.274;10.470;2022-08-06T08:57:30;0.93;;;0.40;;
15661;SDS011;7931;52.274;10.470;2022-08-06T08:59:58;2.55;;;0.55;;
15661;SDS011;7931;52.274;10.470;2022-08-06T09:02:25;2.78;;;0.45;;
15661;SDS011;7931;52.274;10.470;2022-08-06T09:04:52;0.93;;;0.32;;
15661;SDS011;7931;52.274;10.470;2022-08-06T09:07:18;2.45;;;0.45;;
15661;SDS011;7931;52.274;10.470;2022-08-06T09:09:44;0.73;;;0.40;;
15661;SDS011;7931;52.274;10.470;2022-08-06T09:12:10;0.50;;;0.40;;
15661;SDS011;7931;52.274;10.470;2022-08-06T09:14:35;2.80;;;0.30;;
15661;SDS011;7931;52.274;10.470;2022-08-06T09:17:02;3.55;;;0.47;;
15661;SDS011;7931;52.274;10.470;2022-08-06T09:19:29;1.52;;;0.30;;
15661;SDS011;7931;52.274;10.470;2022-08-06T09:21:56;2.42;;;0.45;;
15661;SDS011;7931;52.274;10.470;2022-08-06T09:24:22;2.95;;;0.40;;
15661;SDS011;7931;52.274;10.470;2022-08-06T09:29:36;1.13;;;0.20;;
15661;SDS011;7931;52.274;10.470;2022-08-06T09:32:13;0.95;;;0.30;;
15661;SDS011;7931;52.274;10.470;2022-08-06T09:35:19;2.92;;;0.40;;
15661;SDS011;7931;52.274;10.470;2022-08-06T09:37:47;1.85;;;0.40;;
15661;SDS011;7931;52.274;10.470;2022-08-06T09:40:14;1.58;;;0.40;;
15661;SDS011;7931;52.274;10.470;2022-08-06T09:42:42;0.63;;;0.30;;
15661;SDS011;7931;52.274;10.470;2022-08-06T09:45:10;0.47;;;0.30;;
15661;SDS011;7931;52.274;10.470;2022-08-06T09:47:38;1.20;;;0.50;;
15661;SDS011;7931;52.274;10.470;2022-08-06T09:50:04;3.45;;;0.40;;
15661;SDS011;7931;52.274;10.470;2022-08-06T09:52:30;1.23;;;0.30;;
15661;SDS011;7931;52.274;10.470;2022-08-06T09:54:56;2.08;;;0.40;;
15661;SDS011;7931;52.274;10.470;2022-08-06T09:57:22;0.68;;;0.30;;
15661;SDS011;7931;52.274;10.470;2022-08-06T09:59:48;2.67;;;0.28;;
15661;SDS011;7931;52.274;10.470;2022-08-06T10:02:15;1.13;;;0.30;;
15661;SDS011;7931;52.274;10.470;2022-08-06T10:04:43;1.27;;;0.38;;
15661;SDS011;7931;52.274;10.470;2022-08-06T10:07:09;1.33;;;0.38;;
15661;SDS011;7931;52.274;10.470;2022-08-06T10:09:35;1.48;;;0.40;;
15661;SDS011;7931;52.274;10.470;2022-08-06T10:12:10;2.47;;;0.50;;
15661;SDS011;7931;52.274;10.470;2022-08-06T10:14:42;0.45;;;0.40;;
15661;SDS011;7931;52.274;10.470;2022-08-06T10:17:08;1.05;;;0.25;;
15661;SDS011;7931;52.274;10.470;2022-08-06T10:19:39;2.22;;;0.35;;
15661;SDS011;7931;52.274;10.470;2022-08-06T10:22:17;0.32;;;0.30;;
15661;SDS011;7931;52.274;10.470;2022-08-06T10:24:43;3.13;;;0.50;;
15661;SDS011;7931;52.274;10.470;2022-08-06T10:27:11;3.22;;;0.47;;
15661;SDS011;7931;52.274;10.470;2022-08-06T10:29:44;1.23;;;0.30;;
15661;SDS011;7931;52.274;10.470;2022-08-06T10:32:16;2.72;;;0.30;;
15661;SDS011;7931;52.274;10.470;2022-08-06T10:34:46;1.40;;;0.28;;
15661;SDS011;7931;52.274;10.470;2022-08-06T10:37:14;0.93;;;0.17;;
15661;SDS011;7931;52.274;10.470;2022-08-06T10:39:45;0.85;;;0.30;;
15661;SDS011;7931;52.274;10.470;2022-08-06T10:42:12;0.60;;;0.30;;
15661;SDS011;7931;52.274;10.470;2022-08-06T10:44:39;0.50;;;0.43;;
15661;SDS011;7931;52.274;10.470;2022-08-06T10:47:05;1.95;;;0.30;;
15661;SDS011;7931;52.274;10.470;2022-08-06T10:49:33;0.52;;;0.30;;
15661;SDS011;7931;52.274;10.470;2022-08-06T10:52:00;1.40;;;0.30;;
15661;SDS011;7931;52.274;10.470;2022-08-06T10:54:26;0.85;;;0.17;;
15661;SDS011;7931;52.274;10.470;2022-08-06T10:56:52;0.80;;;0.20;;
15661;SDS011;7931;52.274;10.470;2022-08-06T10:59:21;1.40;;;0.45;;
15661;SDS011;7931;52.274;10.470;2022-08-06T11:01:54;2.45;;;0.40;;
15661;SDS011;7931;52.274;10.470;2022-08-06T11:15:07;0.68;;;0.30;;
15661;SDS011;7931;52.274;10.470;2022-08-06T11:17:43;1.67;;;0.25;;
15661;SDS011;7931;52.274;10.470;2022-08-06T11:23:00;0.50;;;0.10;;
15661;SDS011;7931;52.274;10.470;2022-08-06T11:30:56;0.93;;;0.20;;
15661;SDS011;7931;52.274;10.470;2022-08-06T11:36:02;0.73;;;0.30;;
15661;SDS011;7931;52.274;10.470;2022-08-06T11:41:18;0.40;;;0.20;;
15661;SDS011;7931;52.274;10.470;2022-08-06T11:59:34;1.33;;;0.20;;
15661;SDS011;7931;52.274;10.470;2022-08-06T12:02:04;1.38;;;0.32;;
15661;SDS011;7931;52.274;10.470;2022-08-06T12:14:54;0.57;;;0.30;;
15661;SDS011;7931;52.274;10.470;2022-08-06T12:17:21;1.40;;;0.30;;
15661;SDS011;7931;52.274;10.470;2022-08-06T12:19:49;2.25;;;0.35;;
15661;SDS011;7931;52.274;10.470;2022-08-06T12:22:17;0.95;;;0.30;;
15661;SDS011;7931;52.274;10.470;2022-08-06T12:24:45;0.32;;;0.20;;
15661;SDS011;7931;52.274;10.470;2022-08-06T12:27:16;0.75;;;0.22;;
15661;SDS011;7931;52.274;10.470;2022-08-06T12:29:42;1.00;;;0.40;;
15661;SDS011;7931;52.274;10.470;2022-08-06T12:32:24;1.15;;;0.38;;
15661;SDS011;7931;52.274;10.470;2022-08-06T12:34:51;1.75;;;0.20;;
15661;SDS011;7931;52.274;10.470;2022-08-06T12:37:17;0.40;;;0.22;;
15661;SDS011;7931;52.274;10.470;2022-08-06T12:39:44;1.10;;;0.45;;
15661;SDS011;7931;52.274;10.470;2022-08-06T12:42:28;0.77;;;0.63;;
15661;SDS011;7931;52.274;10.470;2022-08-06T12:44:55;1.00;;;0.40;;
15661;SDS011;7931;52.274;10.470;2022-08-06T12:47:21;1.55;;;0.20;;
15661;SDS011;7931;52.274;10.470;2022-08-06T12:49:48;1.65;;;0.30;;
15661;SDS011;7931;52.274;10.470;2022-08-06T12:52:14;0.38;;;0.20;;
15661;SDS011;7931;52.274;10.470;2022-08-06T12:54:42;1.27;;;0.30;;
15661;SDS011;7931;52.274;10.470;2022-08-06T12:57:18;0.70;;;0.35;;
15661;SDS011;7931;52.274;10.470;2022-08-06T12:59:51;0.45;;;0.20;;
15661;SDS011;7931;52.274;10.470;2022-08-06T13:02:18;1.77;;;0.50;;
15661;SDS011;7931;52.274;10.470;2022-08-06T13:04:49;1.02;;;0.30;;
15661;SDS011;7931;52.274;10.470;2022-08-06T13:07:17;1.45;;;0.32;;
15661;SDS011;7931;52.274;10.470;2022-08-06T13:09:44;1.25;;;0.20;;
15661;SDS011;7931;52.274;10.470;2022-08-06T13:12:15;0.40;;;0.20;;
15661;SDS011;7931;52.274;10.470;2022-08-06T13:14:52;2.25;;;0.30;;
15661;SDS011;7931;52.274;10.470;2022-08-06T13:17:22;0.43;;;0.30;;
15661;SDS011;7931;52.274;10.470;2022-08-06T13:19:57;0.22;;;0.10;;
15661;SDS011;7931;52.274;10.470;2022-08-06T13:22:23;0.90;;;0.35;;
15661;SDS011;7931;52.274;10.470;2022-08-06T13:27:38;0.40;;;0.20;;
15661;SDS011;7931;52.274;10.470;2022-08-06T13:30:05;0.55;;;0.20;;
15661;SDS011;7931;52.274;10.470;2022-08-06T13:32:32;0.77;;;0.28;;
15661;SDS011;7931;52.274;10.470;2022-08-06T13:34:59;0.82;;;0.22;;
15661;SDS011;7931;52.274;10.470;2022-08-06T13:40:11;1.70;;;0.32;;
15661;SDS011;7931;52.274;10.470;2022-08-06T13:42:50;1.08;;;0.50;;
15661;SDS011;7931;52.274;10.470;2022-08-06T13:47:46;0.50;;;0.38;;
15661;SDS011;7931;52.274;10.470;2022-08-06T13:50:15;0.38;;;0.30;;
15661;SDS011;7931;52.274;10.470;2022-08-06T13:52:42;1.80;;;0.47;;
15661;SDS011;7931;52.274;10.470;2022-08-06T13:55:07;1.05;;;0.32;;
15661;SDS011;7931;52.274;10.470;2022-08-06T13:57:33;0.75;;;0.20;;
15661;SDS011;7931;52.274;10.470;2022-08-06T14:00:01;1.20;;;0.30;;
15661;SDS011;7931;52.274;10.470;2022-08-06T14:02:31;1.90;;;0.57;;
15661;SDS011;7931;52.274;10.470;2022-08-06T14:04:57;0.98;;;0.20;;
15661;SDS011;7931;52.274;10.470;2022-08-06T14:07:22;0.93;;;0.20;;
15661;SDS011;7931;52.274;10.470;2022-08-06T14:09:48;0.38;;;0.20;;
15661;SDS011;7931;52.274;10.470;2022-08-06T14:12:14;0.40;;;0.20;;
15661;SDS011;7931;52.274;10.470;2022-08-06T14:14:39;0.40;;;0.30;;
15661;SDS011;7931;52.274;10.470;2022-08-06T14:17:05;1.00;;;0.30;;
15661;SDS011;7931;52.274;10.470;2022-08-06T14:19:31;0.43;;;0.30;;
15661;SDS011;7931;52.274;10.470;2022-08-06T14:21:57;0.90;;;0.25;;
15661;SDS011;7931;52.274;10.470;2022-08-06T14:24:23;1.10;;;0.30;;
15661;SDS011;7931;52.274;10.470;2022-08-06T14:26:49;0.40;;;0.20;;
15661;SDS011;7931;52.274;10.470;2022-08-06T14:29:15;1.58;;;0.30;;
15661;SDS011;7931;52.274;10.470;2022-08-06T14:31:41;0.40;;;0.38;;
15661;SDS011;7931;52.274;10.470;2022-08-06T14:34:06;1.58;;;0.30;;
15661;SDS011;7931;52.274;10.470;2022-08-06T14:36:32;1.27;;;0.30;;
15661;SDS011;7931;52.274;10.470;2022-08-06T14:38:57;1.48;;;0.88;;
15661;SDS011;7931;52.274;10.470;2022-08-06T14:41:23;0.75;;;0.20;;
15661;SDS011;7931;52.274;10.470;2022-08-06T14:44:08;0.35;;;0.28;;
15661;SDS011;7931;52.274;10.470;2022-08-06T14:46:53;0.40;;;0.30;;
15661;SDS011;7931;52.274;10.470;2022-08-06T14:49:19;1.35;;;0.50;;
15661;SDS011;7931;52.274;10.470;2022-08-06T14:51:44;0.75;;;0.30;;
15661;SDS011;7931;52.274;10.470;2022-08-06T14:54:10;1.10;;;0.20;;
15661;SDS011;7931;52.274;10.470;2022-08-06T14:56:35;0.30;;;0.20;;
15661;SDS011;7931;52.274;10.470;2022-08-06T14:59:01;0.40;;;0.22;;
15661;SDS011;7931;52.274;10.470;2022-08-06T15:01:26;2.45;;;0.40;;
15661;SDS011;7931;52.274;10.470;2022-08-06T15:03:52;1.40;;;0.43;;
15661;SDS011;7931;52.274;10.470;2022-08-06T15:06:17;1.02;;;0.25;;
15661;SDS011;7931;52.274;10.470;2022-08-06T15:08:43;0.43;;;0.28;;
15661;SDS011;7931;52.274;10.470;2022-08-06T15:11:08;0.50;;;0.20;;
15661;SDS011;7931;52.274;10.470;2022-08-06T15:13:33;0.60;;;0.22;;
15661;SDS011;7931;52.274;10.470;2022-08-06T15:15:59;0.95;;;0.35;;
15661;SDS011;7931;52.274;10.470;2022-08-06T15:18:25;0.50;;;0.20;;
15661;SDS011;7931;52.274;10.470;2022-08-06T15:20:50;0.75;;;0.30;;
15661;SDS011;7931;52.274;10.470;2022-08-06T15:23:16;0.20;;;0.10;;
15661;SDS011;7931;52.274;10.470;2022-08-06T15:25:42;0.47;;;0.10;;
15661;SDS011;7931;52.274;10.470;2022-08-06T15:28:07;0.20;;;0.10;;
15661;SDS011;7931;52.274;10.470;2022-08-06T15:30:33;1.05;;;0.20;;
15661;SDS011;7931;52.274;10.470;2022-08-06T15:32:59;0.20;;;0.10;;
15661;SDS011;7931;52.274;10.470;2022-08-06T15:35:26;2.17;;;0.30;;
15661;SDS011;7931;52.274;10.470;2022-08-06T15:37:51;0.80;;;0.30;;
15661;SDS011;7931;52.274;10.470;2022-08-06T15:40:18;0.20;;;0.20;;
15661;SDS011;7931;52.274;10.470;2022-08-06T15:42:43;0.60;;;0.30;;
15661;SDS011;7931;52.274;10.470;2022-08-06T15:45:09;0.20;;;0.20;;
15661;SDS011;7931;52.274;10.470;2022-08-06T15:47:35;0.77;;;0.40;;
15661;SDS011;7931;52.274;10.470;2022-08-06T15:50:01;0.30;;;0.20;;
15661;SDS011;7931;52.274;10.470;2022-08-06T15:52:26;2.47;;;0.25;;
15661;SDS011;7931;52.274;10.470;2022-08-06T15:54:51;1.40;;;0.30;;
15661;SDS011;7931;52.274;10.470;2022-08-06T15:57:17;0.38;;;0.30;;
15661;SDS011;7931;52.274;10.470;2022-08-06T15:59:47;0.52;;;0.25;;
15661;SDS011;7931;52.274;10.470;2022-08-06T16:02:12;1.10;;;0.38;;
15661;SDS011;7931;52.274;10.470;2022-08-06T16:04:38;0.75;;;0.40;;
15661;SDS011;7931;52.274;10.470;2022-08-06T16:07:04;0.30;;;0.20;;
15661;SDS011;7931;52.274;10.470;2022-08-06T16:09:30;0.35;;;0.20;;
15661;SDS011;7931;52.274;10.470;2022-08-06T16:11:56;0.90;;;0.30;;
15661;SDS011;7931;52.274;10.470;2022-08-06T16:14:25;0.20;;;0.20;;
15661;SDS011;7931;52.274;10.470;2022-08-06T16:16:50;0.20;;;0.20;;
15661;SDS011;7931;52.274;10.470;2022-08-06T16:19:16;0.63;;;0.30;;
15661;SDS011;7931;52.274;10.470;2022-08-06T16:21:41;2.33;;;0.40;;